createdAt,value
2022-10-06T00:01:16.653Z,100532.25
2022-10-06T00:03:46.241Z,100525.69
2022-10-06T00:06:16.977Z,100528.88
2022-10-06T00:08:46.629Z,100525.47
2022-10-06T00:11:16.428Z,100519.09
2022-10-06T00:13:47.173Z,100516.38
2022-10-06T00:16:18.607Z,100517.53
2022-10-06T00:18:47.256Z,100522.41
2022-10-06T00:21:16.197Z,100520.38
2022-10-06T00:23:44.975Z,100522.06
2022-10-06T00:26:17.267Z,100515.84
2022-10-06T00:28:48.642Z,100514.53
2022-10-06T00:31:19.664Z,100517.69
2022-10-06T00:33:48.563Z,100518.91
2022-10-06T00:36:17.097Z,100511.44
2022-10-06T00:38:45.719Z,100511.28
2022-10-06T00:41:16.336Z,100507.91
2022-10-06T00:43:51.037Z,100509.06
2022-10-06T00:46:28.684Z,100513.59
2022-10-06T00:49:02.487Z,100517.00
2022-10-06T00:51:32.038Z,100517.69
2022-10-06T00:54:02.067Z,100521.56
2022-10-06T00:56:30.692Z,100510.91
2022-10-06T00:59:00.761Z,100513.44
2022-10-06T01:01:32.207Z,100506.19
2022-10-06T01:04:07.544Z,100499.44
2022-10-06T01:06:45.431Z,100498.78
2022-10-06T01:09:15.778Z,100503.50
2022-10-06T01:11:45.158Z,100506.38
2022-10-06T01:14:16.198Z,100496.56
2022-10-06T01:16:48.327Z,100497.72
2022-10-06T01:19:26.781Z,100492.19
2022-10-06T01:21:57.496Z,100488.63
2022-10-06T01:24:28.811Z,100489.31
2022-10-06T01:26:59.343Z,100483.38
2022-10-06T01:29:28.417Z,100496.03
2022-10-06T01:31:57.382Z,100490.63
2022-10-06T01:34:26.072Z,100481.00
2022-10-06T01:36:54.602Z,100484.41
2022-10-06T01:39:23.411Z,100472.91
2022-10-06T01:41:53.547Z,100471.03
2022-10-06T01:44:22.099Z,100477.59
2022-10-06T01:46:52.696Z,100478.06
2022-10-06T01:49:21.467Z,100479.75
2022-10-06T01:51:50.612Z,100481.78
2022-10-06T01:54:19.299Z,100476.38
2022-10-06T01:56:47.830Z,100456.81
2022-10-06T01:59:17.889Z,100471.66
2022-10-06T02:01:46.587Z,100462.53
2022-10-06T02:04:15.599Z,100459.97
2022-10-06T02:06:45.469Z,100451.88
2022-10-06T02:09:14.093Z,100459.41
2022-10-06T02:11:44.496Z,100449.63
2022-10-06T02:14:13.291Z,100455.88
2022-10-06T02:16:43.842Z,100447.94
2022-10-06T02:19:13.521Z,100438.00
2022-10-06T02:21:42.830Z,100435.13
2022-10-06T02:24:11.428Z,100442.56
2022-10-06T02:26:40.235Z,100432.06
2022-10-06T02:29:08.911Z,100426.84
2022-10-06T02:31:37.901Z,100426.03
2022-10-06T02:34:08.156Z,100423.84
2022-10-06T02:36:36.984Z,100426.03
2022-10-06T02:39:06.705Z,100418.41
2022-10-06T02:41:35.490Z,100414.19
2022-10-06T02:44:05.361Z,100414.03
2022-10-06T02:46:34.464Z,100413.00
2022-10-06T02:49:03.761Z,100405.16
2022-10-06T02:51:34.138Z,100412.88
2022-10-06T02:54:02.950Z,100400.22
2022-10-06T02:56:31.536Z,100411.00
2022-10-06T02:59:00.160Z,100408.13
2022-10-06T03:01:35.846Z,100401.75
2022-10-06T03:04:12.324Z,100401.97
2022-10-06T03:06:44.500Z,100401.06
2022-10-06T03:09:20.164Z,100398.22
2022-10-06T03:11:48.885Z,100392.25
2022-10-06T03:14:23.529Z,100388.41
2022-10-06T03:16:52.937Z,100394.28
2022-10-06T03:19:25.625Z,100390.25
2022-10-06T03:21:56.709Z,100389.56
2022-10-06T03:24:37.624Z,100386.50
2022-10-06T03:27:07.110Z,100386.03
2022-10-06T03:29:35.778Z,100394.28
2022-10-06T03:32:05.642Z,100399.28
2022-10-06T03:34:35.553Z,100399.75
2022-10-06T03:37:07.758Z,100401.63
2022-10-06T03:39:36.659Z,100397.22
2022-10-06T03:42:05.598Z,100393.91
2022-10-06T03:44:35.246Z,100394.38
2022-10-06T03:47:04.818Z,100394.38
2022-10-06T03:49:34.523Z,100390.81
2022-10-06T03:52:03.370Z,100396.91
2022-10-06T03:54:38.078Z,100393.19
2022-10-06T03:57:06.959Z,100395.22
2022-10-06T03:59:35.839Z,100400.63
2022-10-06T04:02:06.491Z,100392.66
2022-10-06T04:04:39.457Z,100388.41
2022-10-06T04:07:10.742Z,100380.03
2022-10-06T04:09:41.977Z,100374.94
2022-10-06T04:12:12.506Z,100368.91
2022-10-06T04:14:43.299Z,100373.91
2022-10-06T04:17:12.625Z,100360.75
2022-10-06T04:19:43.045Z,100357.19
2022-10-06T04:22:11.764Z,100351.81
2022-10-06T04:24:41.948Z,100345.94
2022-10-06T04:27:29.264Z,100338.25
2022-10-06T04:30:05.841Z,100329.75
2022-10-06T04:32:35.491Z,100320.34
2022-10-06T04:35:04.943Z,100308.28
2022-10-06T04:37:34.019Z,100319.75
2022-10-06T04:40:05.698Z,100325.59
2022-10-06T04:42:35.560Z,100321.03
2022-10-06T04:45:09.256Z,100316.69
2022-10-06T04:47:40.360Z,100313.97
2022-10-06T04:50:09.788Z,100314.28
2022-10-06T04:52:41.726Z,100318.25
2022-10-06T04:55:12.466Z,100304.38
2022-10-06T04:57:42.287Z,100303.75
2022-10-06T05:00:25.831Z,100291.28
2022-10-06T05:02:56.820Z,100293.47
2022-10-06T05:05:25.664Z,100292.44
2022-10-06T05:07:56.326Z,100295.47
2022-10-06T05:10:28.752Z,100295.28
2022-10-06T05:12:58.342Z,100291.28
2022-10-06T05:15:29.386Z,100291.63
2022-10-06T05:17:57.926Z,100301.72
2022-10-06T05:20:26.625Z,100290.91
2022-10-06T05:22:55.661Z,100293.47
2022-10-06T05:25:24.509Z,100305.25
2022-10-06T05:27:54.567Z,100298.38
2022-10-06T05:30:23.626Z,100304.94
2022-10-06T05:32:52.890Z,100297.16
2022-10-06T05:35:21.939Z,100306.09
2022-10-06T05:37:50.605Z,100305.78
2022-10-06T05:40:19.511Z,100302.06
2022-10-06T05:42:48.232Z,100301.06
2022-10-06T05:45:19.348Z,100306.63
2022-10-06T05:47:48.167Z,100295.66
2022-10-06T05:50:16.883Z,100295.66
2022-10-06T05:52:45.564Z,100303.50
2022-10-06T05:55:14.600Z,100296.38
2022-10-06T05:57:43.183Z,100298.94
2022-10-06T06:00:12.724Z,100307.72
2022-10-06T06:02:49.064Z,100312.25
2022-10-06T06:05:17.943Z,100311.41
2022-10-06T06:07:46.606Z,100307.75
2022-10-06T06:10:15.273Z,100306.22
2022-10-06T06:12:48.143Z,100306.56
2022-10-06T06:15:50.901Z,100299.16
2022-10-06T06:18:21.105Z,100311.63
2022-10-06T06:20:57.643Z,100301.16
2022-10-06T06:23:26.724Z,100302.69
2022-10-06T06:26:02.294Z,100294.78
2022-10-06T06:28:33.138Z,100286.88
2022-10-06T06:31:04.416Z,100293.09
2022-10-06T06:33:34.546Z,100283.16
2022-10-06T06:36:04.219Z,100287.72
2022-10-06T06:38:35.562Z,100281.13
2022-10-06T06:41:04.359Z,100285.38
2022-10-06T06:43:33.446Z,100278.66
2022-10-06T06:46:22.309Z,100279.34
2022-10-06T06:49:12.463Z,100266.19
2022-10-06T06:51:50.082Z,100284.91
2022-10-06T06:54:21.597Z,100285.75
2022-10-06T06:56:56.839Z,100290.84
2022-10-06T06:59:26.326Z,100287.97
2022-10-06T07:01:57.879Z,100290.19
2022-10-06T07:04:29.583Z,100288.69
2022-10-06T07:06:58.705Z,100293.44
2022-10-06T07:09:31.020Z,100289.44
2022-10-06T07:12:04.462Z,100284.88
2022-10-06T07:14:33.882Z,100282.16
2022-10-06T07:17:21.351Z,100283.50
2022-10-06T07:20:10.187Z,100281.81
2022-10-06T07:22:56.218Z,100275.41
2022-10-06T07:25:28.024Z,100282.19
2022-10-06T07:27:59.903Z,100273.94
2022-10-06T07:30:40.575Z,100268.53
2022-10-06T07:33:21.729Z,100271.22
2022-10-06T07:35:53.112Z,100272.75
2022-10-06T07:38:26.087Z,100270.03
2022-10-06T07:43:47.522Z,100268.69
2022-10-06T07:46:19.654Z,100257.88
2022-10-06T07:49:07.460Z,100260.97
2022-10-06T07:51:37.878Z,100252.84
2022-10-06T07:54:08.563Z,100246.44
2022-10-06T07:56:56.128Z,100251.50
2022-10-06T07:59:24.759Z,100246.78
2022-10-06T08:01:55.025Z,100247.28
2022-10-06T08:04:23.765Z,100251.19
2022-10-06T08:06:54.747Z,100245.94
2022-10-06T08:09:23.071Z,100239.72
2022-10-06T08:11:52.782Z,100240.22
2022-10-06T08:14:22.448Z,100243.09
2022-10-06T08:16:51.381Z,100244.78
2022-10-06T08:19:20.060Z,100245.81
2022-10-06T08:21:48.762Z,100240.41
2022-10-06T08:24:19.858Z,100241.06
2022-10-06T08:26:48.623Z,100240.56
2022-10-06T08:29:17.187Z,100239.22
2022-10-06T08:31:45.901Z,100244.28
2022-10-06T08:34:14.598Z,100241.41
2022-10-06T08:36:56.981Z,100244.63
2022-10-06T08:39:34.788Z,100245.44
2022-10-06T08:42:03.961Z,100242.75
2022-10-06T08:44:38.144Z,100243.59
2022-10-06T08:47:13.728Z,100233.63
2022-10-06T08:49:46.134Z,100225.84
2022-10-06T08:52:23.761Z,100221.78
2022-10-06T08:55:04.977Z,100208.59
2022-10-06T08:57:40.002Z,100223.63
2022-10-06T09:00:16.855Z,100207.25
2022-10-06T09:02:50.603Z,100215.00
2022-10-06T09:05:25.769Z,100222.59
2022-10-06T09:08:03.827Z,100219.75
2022-10-06T09:10:44.726Z,100223.97
2022-10-06T09:13:21.778Z,100225.50
2022-10-06T09:15:55.648Z,100236.16
2022-10-06T09:18:49.527Z,100241.72
2022-10-06T09:21:23.304Z,100245.47
2022-10-06T09:23:57.280Z,100235.63
2022-10-06T09:26:31.523Z,100249.34
2022-10-06T09:29:00.865Z,100240.41
2022-10-06T09:31:32.018Z,100249.34
2022-10-06T09:34:05.864Z,100243.41
2022-10-06T09:36:35.260Z,100239.88
2022-10-06T09:39:06.642Z,100243.75
2022-10-06T09:41:42.104Z,100244.59
2022-10-06T09:44:26.609Z,100241.72
2022-10-06T09:46:56.023Z,100241.41
2022-10-06T09:49:26.748Z,100237.00
2022-10-06T09:52:15.422Z,100238.00
2022-10-06T09:54:44.968Z,100244.94
2022-10-06T09:57:22.104Z,100242.41
2022-10-06T09:59:50.924Z,100245.94
2022-10-06T10:02:28.539Z,100235.44
2022-10-06T10:04:58.599Z,100253.22
2022-10-06T10:07:28.750Z,100250.84
2022-10-06T10:10:19.630Z,100250.53
2022-10-06T10:12:54.151Z,100240.72
2022-10-06T10:15:29.605Z,100246.47
2022-10-06T10:17:59.884Z,100244.13
2022-10-06T10:20:34.516Z,100247.66
2022-10-06T10:23:19.878Z,100239.88
2022-10-06T10:26:27.897Z,100249.84
2022-10-06T10:29:33.029Z,100239.03
2022-10-06T10:32:12.409Z,100263.91
2022-10-06T10:35:02.351Z,100253.75
2022-10-06T10:37:40.929Z,100251.84
2022-10-06T10:40:19.082Z,100246.44
2022-10-06T10:42:54.230Z,100259.66
2022-10-06T10:45:32.630Z,100246.13
2022-10-06T10:48:02.539Z,100255.91
2022-10-06T10:50:35.345Z,100253.72
2022-10-06T10:53:11.995Z,100254.56
2022-10-06T10:55:44.121Z,100255.25
2022-10-06T10:58:21.578Z,100247.81
2022-10-06T11:00:54.974Z,100250.50
2022-10-06T11:03:23.922Z,100254.94
2022-10-06T11:06:08.411Z,100259.16
2022-10-06T11:08:44.377Z,100251.41
2022-10-06T11:11:20.578Z,100257.28
2022-10-06T11:13:52.604Z,100262.19
2022-10-06T11:16:37.322Z,100266.41
2022-10-06T11:19:18.440Z,100262.19
2022-10-06T11:21:58.080Z,100275.53
2022-10-06T11:24:37.908Z,100278.75
2022-10-06T11:27:18.413Z,100276.91
2022-10-06T11:29:58.644Z,100280.94
2022-10-06T11:32:34.718Z,100286.53
2022-10-06T11:35:04.010Z,100292.44
2022-10-06T11:37:40.737Z,100287.03
2022-10-06T11:40:49.187Z,100282.63
2022-10-06T11:43:28.739Z,100273.22
2022-10-06T11:46:09.055Z,100275.03
2022-10-06T11:48:39.318Z,100277.41
2022-10-06T11:51:30.770Z,100287.53
2022-10-06T11:54:00.238Z,100288.00
2022-10-06T11:56:46.842Z,100280.91
2022-10-06T11:59:31.902Z,100293.78
2022-10-06T12:02:02.193Z,100293.63
2022-10-06T12:04:32.542Z,100290.84
2022-10-06T12:07:05.506Z,100287.78
2022-10-06T12:09:52.720Z,100293.22
2022-10-06T12:13:21.300Z,100291.88
2022-10-06T12:19:18.920Z,100293.97
2022-10-06T12:21:59.662Z,100284.97
2022-10-06T12:24:45.800Z,100310.53
2022-10-06T12:27:37.605Z,100300.50
2022-10-06T12:30:18.785Z,100309.97
2022-10-06T12:32:52.900Z,100306.53
2022-10-06T12:35:32.769Z,100306.31
2022-10-06T12:38:06.327Z,100308.66
2022-10-06T12:40:54.762Z,100298.13
2022-10-06T12:43:50.776Z,100297.38
2022-10-06T12:46:27.239Z,100309.91
2022-10-06T12:49:05.868Z,100292.47
2022-10-06T12:51:39.254Z,100320.41
2022-10-06T12:54:19.784Z,100316.63
2022-10-06T12:56:59.122Z,100327.88
2022-10-06T12:59:30.322Z,100340.72
2022-10-06T13:02:02.062Z,100343.97
2022-10-06T13:04:36.921Z,100343.25
2022-10-06T13:07:12.683Z,100336.09
2022-10-06T13:09:43.424Z,100355.16
2022-10-06T13:12:30.859Z,100360.22
2022-10-06T13:15:15.221Z,100369.88
2022-10-06T13:17:46.120Z,100383.81
2022-10-06T13:20:29.703Z,100383.34
2022-10-06T13:23:03.384Z,100391.41
2022-10-06T13:25:46.071Z,100404.00
2022-10-06T13:28:26.486Z,100410.84
2022-10-06T13:30:57.078Z,100406.78
2022-10-06T13:33:29.885Z,100422.91
2022-10-06T13:36:00.132Z,100430.25
2022-10-06T13:38:32.061Z,100425.53
2022-10-06T13:41:17.558Z,100443.69
2022-10-06T13:43:50.458Z,100438.56
2022-10-06T13:46:22.120Z,100456.09
2022-10-06T13:48:54.329Z,100464.41
2022-10-06T13:51:25.882Z,100467.66
2022-10-06T13:53:54.723Z,100465.59
2022-10-06T13:56:39.387Z,100481.53
2022-10-06T13:59:35.965Z,100481.53
2022-10-06T14:02:25.019Z,100478.66
2022-10-06T14:05:27.052Z,100482.41
2022-10-06T14:07:59.315Z,100486.13
2022-10-06T14:10:32.366Z,100490.34
2022-10-06T14:13:03.464Z,100488.16
2022-10-06T14:15:40.305Z,100508.63
2022-10-06T14:18:08.944Z,100497.47
2022-10-06T14:20:46.074Z,100502.88
2022-10-06T14:23:35.027Z,100506.75
2022-10-06T14:26:05.058Z,100522.31
2022-10-06T14:28:35.134Z,100526.41
2022-10-06T14:31:04.216Z,100547.72
2022-10-06T14:33:32.724Z,100543.38
2022-10-06T14:36:02.107Z,100554.22
2022-10-06T14:38:30.987Z,100567.19
2022-10-06T14:41:03.467Z,100578.59
2022-10-06T14:43:33.082Z,100583.09
2022-10-06T14:46:06.296Z,100572.44
2022-10-06T14:48:35.099Z,100583.41
2022-10-06T14:51:04.428Z,100590.84
2022-10-06T14:53:33.440Z,100578.78
2022-10-06T14:56:03.398Z,100577.72
2022-10-06T14:58:33.077Z,100587.88
2022-10-06T15:01:07.708Z,100582.59
2022-10-06T15:03:39.321Z,100582.28
2022-10-06T15:06:27.042Z,100582.59
2022-10-06T15:08:57.208Z,100594.81
2022-10-06T15:11:28.400Z,100598.25
2022-10-06T15:13:58.848Z,100594.56
2022-10-06T15:16:30.908Z,100598.13
2022-10-06T15:19:00.857Z,100599.28
2022-10-06T15:21:31.579Z,100608.41
2022-10-06T15:24:01.961Z,100605.16
2022-10-06T15:26:48.691Z,100620.53
2022-10-06T15:29:17.991Z,100614.41
2022-10-06T15:31:53.217Z,100623.59
2022-10-06T15:34:23.766Z,100648.94
2022-10-06T15:36:53.267Z,100651.06
2022-10-06T15:39:23.870Z,100653.53
2022-10-06T15:41:53.038Z,100652.50
2022-10-06T15:44:22.819Z,100662.22
2022-10-06T15:46:54.154Z,100667.03
2022-10-06T15:49:24.290Z,100684.72
2022-10-06T15:51:54.320Z,100703.22
2022-10-06T15:54:24.957Z,100715.75
2022-10-06T15:56:55.075Z,100722.94
2022-10-06T15:59:25.166Z,100712.44
2022-10-06T16:01:57.722Z,100715.41
2022-10-06T16:04:33.996Z,100715.34
2022-10-06T16:07:03.050Z,100723.84
2022-10-06T16:09:33.596Z,100727.59
2022-10-06T16:12:04.442Z,100728.72
2022-10-06T16:14:38.749Z,100740.38
2022-10-06T16:17:10.262Z,100742.66
2022-10-06T16:19:40.400Z,100749.06
2022-10-06T16:22:12.605Z,100755.84
2022-10-06T16:24:41.186Z,100760.81
2022-10-06T16:27:12.955Z,100755.94
2022-10-06T16:29:42.035Z,100761.09
2022-10-06T16:32:12.058Z,100761.81
2022-10-06T16:34:40.614Z,100767.75
2022-10-06T16:37:09.107Z,100766.75
2022-10-06T16:39:37.907Z,100772.84
2022-10-06T16:42:06.642Z,100777.25
2022-10-06T16:44:35.182Z,100771.03
2022-10-06T16:47:03.767Z,100784.50
2022-10-06T16:49:33.801Z,100782.22
2022-10-06T16:52:03.788Z,100789.75
2022-10-06T16:54:32.387Z,100797.13
2022-10-06T16:57:06.761Z,100797.13
2022-10-06T16:59:35.578Z,100802.25
2022-10-06T17:02:04.138Z,100802.25
2022-10-06T17:04:35.610Z,100803.81
2022-10-06T17:07:04.908Z,100808.50
2022-10-06T17:09:33.969Z,100818.72
2022-10-06T17:12:06.608Z,100815.31
2022-10-06T17:14:37.450Z,100819.16
2022-10-06T17:17:06.228Z,100821.16
2022-10-06T17:19:36.248Z,100816.75
2022-10-06T17:22:05.089Z,100818.06
2022-10-06T17:24:34.047Z,100834.38
2022-10-06T17:27:04.888Z,100830.97
2022-10-06T17:29:33.870Z,100834.09
2022-10-06T17:32:02.832Z,100839.34
2022-10-06T17:34:33.397Z,100844.34
2022-10-06T17:37:04.080Z,100847.75
2022-10-06T17:39:33.548Z,100852.56
2022-10-06T17:42:02.229Z,100856.81
2022-10-06T17:44:32.128Z,100850.72
2022-10-06T17:47:01.625Z,100859.09
2022-10-06T17:49:34.987Z,100854.72
2022-10-06T17:52:05.995Z,100857.41
2022-10-06T17:54:34.692Z,100849.56
2022-10-06T17:57:03.447Z,100852.28
2022-10-06T17:59:34.430Z,100851.44
2022-10-06T18:02:07.377Z,100860.81
2022-10-06T18:04:37.540Z,100866.22
2022-10-06T18:07:08.676Z,100863.09
2022-10-06T18:09:37.475Z,100864.91
2022-10-06T18:12:06.702Z,100859.41
2022-10-06T18:14:35.319Z,100857.72
2022-10-06T18:17:04.642Z,100857.72
2022-10-06T18:19:35.110Z,100866.78
2022-10-06T18:22:07.086Z,100859.94
2022-10-06T18:24:37.208Z,100858.81
2022-10-06T18:27:06.661Z,100864.19
2022-10-06T18:29:37.260Z,100869.75
2022-10-06T18:37:46.493Z,100877.84
2022-10-06T18:40:16.899Z,100878.13
2022-10-06T18:42:45.682Z,100882.94
2022-10-06T18:45:36.834Z,100893.00
2022-10-06T18:48:25.502Z,100888.34
2022-10-06T18:51:06.551Z,100877.84
2022-10-06T18:53:36.491Z,100887.78
2022-10-06T18:56:07.073Z,100891.19
2022-10-06T18:58:40.488Z,100889.47
2022-10-06T19:01:09.574Z,100884.38
2022-10-06T19:03:38.204Z,100889.19
2022-10-06T19:06:07.471Z,100893.59
2022-10-06T19:08:36.494Z,100896.59
2022-10-06T19:11:25.901Z,100892.75
2022-10-06T19:13:56.460Z,100896.44
2022-10-06T19:16:25.354Z,100909.63
2022-10-06T19:18:54.759Z,100904.38
2022-10-06T19:21:23.402Z,100910.34
2022-10-06T19:23:51.944Z,100905.53
2022-10-06T19:26:22.922Z,100906.78
2022-10-06T19:28:53.809Z,100912.19
2022-10-06T19:31:23.262Z,100909.06
2022-10-06T19:33:52.070Z,100909.63
2022-10-06T19:36:20.620Z,100922.38
2022-10-06T19:38:49.398Z,100924.00
2022-10-06T19:41:35.448Z,100928.78
2022-10-06T19:44:06.070Z,100941.44
2022-10-06T19:46:37.881Z,100935.03
2022-10-06T19:49:08.459Z,100945.09
2022-10-06T19:51:38.683Z,100946.13
2022-10-06T19:54:07.422Z,100951.50
2022-10-06T19:56:36.157Z,100934.91
2022-10-06T19:59:07.203Z,100942.88
2022-10-06T20:01:36.274Z,100942.88
2022-10-06T20:04:05.793Z,100956.78
2022-10-06T20:06:35.800Z,100951.22
2022-10-06T20:09:07.895Z,100957.63
2022-10-06T20:11:38.480Z,100961.03
2022-10-06T20:14:15.807Z,100957.44
2022-10-06T20:16:49.340Z,100970.94
2022-10-06T20:19:19.982Z,100979.59
2022-10-06T20:21:49.446Z,100976.06
2022-10-06T20:24:19.922Z,100976.91
2022-10-06T20:26:48.666Z,100973.91
2022-10-06T20:29:20.154Z,100974.78
2022-10-06T20:31:50.881Z,100970.38
2022-10-06T20:34:21.526Z,100980.88
2022-10-06T20:36:55.337Z,100981.47
2022-10-06T20:39:42.820Z,100982.44
2022-10-06T20:42:15.162Z,100981.28
2022-10-06T20:44:49.187Z,100985.84
2022-10-06T20:47:17.850Z,100987.25
2022-10-06T20:49:46.560Z,100986.53
2022-10-06T20:52:15.411Z,101000.63
2022-10-06T20:54:44.343Z,101009.56
2022-10-06T20:57:13.281Z,101003.00
2022-10-06T20:59:41.993Z,101011.22
2022-10-06T21:02:12.574Z,101013.34
2022-10-06T21:04:45.946Z,101021.16
2022-10-06T21:07:14.707Z,101020.59
2022-10-06T21:09:44.907Z,101029.53
2022-10-06T21:12:15.909Z,101019.28
2022-10-06T21:14:44.910Z,101030.78
2022-10-06T21:17:15.211Z,101034.03
2022-10-06T21:19:44.088Z,101041.00
2022-10-06T21:22:13.132Z,101044.09
2022-10-06T21:24:41.756Z,101047.78
2022-10-06T21:27:10.650Z,101050.75
2022-10-06T21:29:39.442Z,101051.31
2022-10-06T21:32:10.282Z,101055.97
2022-10-06T21:34:40.444Z,101056.69
2022-10-06T21:37:09.229Z,101056.69
2022-10-06T21:39:37.970Z,101060.13
2022-10-06T21:42:06.849Z,101056.81
2022-10-06T21:44:35.727Z,101066.16
2022-10-06T21:47:04.588Z,101061.88
2022-10-06T21:49:33.483Z,101064.34
2022-10-06T21:52:05.644Z,101063.88
2022-10-06T21:54:34.726Z,101058.03
2022-10-06T21:57:03.528Z,101059.47
2022-10-06T21:59:32.332Z,101050.41
2022-10-06T22:02:01.192Z,101048.41
2022-10-06T22:04:29.864Z,101065.84
2022-10-06T22:06:58.466Z,101057.06
2022-10-06T22:09:28.559Z,101065.25
2022-10-06T22:11:57.162Z,101063.28
2022-10-06T22:14:25.841Z,101061.00
2022-10-06T22:16:54.439Z,101065.66
2022-10-06T22:19:23.151Z,101063.97
2022-10-06T22:21:51.767Z,101058.84
2022-10-06T22:24:22.921Z,101064.09
2022-10-06T22:26:53.055Z,101063.63
2022-10-06T22:29:22.565Z,101060.88
2022-10-06T22:31:51.193Z,101056.69
2022-10-06T22:34:21.905Z,101068.72
2022-10-06T22:36:50.507Z,101062.88
2022-10-06T22:39:19.307Z,101057.50
2022-10-06T22:41:47.983Z,101066.81
2022-10-06T22:44:17.972Z,101064.53
2022-10-06T22:46:46.781Z,101067.59
2022-10-06T22:49:15.484Z,101064.19
2022-10-06T22:51:44.104Z,101068.72
2022-10-06T22:54:18.593Z,101069.09
2022-10-06T22:56:47.223Z,101068.38
2022-10-06T22:59:15.979Z,101071.94
2022-10-06T23:01:46.005Z,101076.72
2022-10-06T23:04:14.914Z,101083.38
2022-10-06T23:06:43.537Z,101091.69
2022-10-06T23:09:13.299Z,101084.88
2022-10-06T23:11:42.039Z,101094.78
2022-10-06T23:14:10.584Z,101091.38
2022-10-06T23:16:39.266Z,101101.25
2022-10-06T23:19:09.341Z,101106.81
2022-10-06T23:21:40.199Z,101099.84
2022-10-06T23:24:09.045Z,101108.88
2022-10-06T23:26:37.678Z,101115.84
2022-10-06T23:29:07.667Z,101116.00
2022-10-06T23:31:36.305Z,101111.56
2022-10-06T23:34:05.036Z,101116.72
2022-10-06T23:36:35.361Z,101112.19
2022-10-06T23:39:04.050Z,101114.13
2022-10-06T23:41:32.694Z,101119.53
2022-10-06T23:44:01.494Z,101111.44
2022-10-06T23:46:30.207Z,101117.84
2022-10-06T23:48:59.100Z,101119.91
2022-10-06T23:51:28.164Z,101117.34
2022-10-06T23:53:58.218Z,101129.94
2022-10-06T23:56:26.891Z,101127.50
2022-10-06T23:58:55.508Z,101131.06
